Time;durP1;ratioP1;P1;durP2;ratioP2;P2;SDS_P1;SDS_P2;PMS_P1;PMS_P2;Temp;Humidity;BMP_temperature;BMP_pressure;BME280_temperature;BME280_humidity;BME280_pressure;Samples;Min_cycle;Max_cycle;Signal;HPM_P1;HPM_P2
2022/07/05 00:01:29;;;;;;;16.80;15.10;;;20.10;99.90;;;20.11;75.40;102036.03;5053732;28;20044;-69
2022/07/05 00:03:58;;;;;;;17.15;15.52;;;19.80;99.90;;;19.82;75.75;102017.94;5053458;28;20044;-70
2022/07/05 00:06:28;;;;;;;17.65;15.93;;;19.50;99.90;;;19.94;76.02;102032.88;5053374;28;20045;-71
2022/07/05 00:08:56;;;;;;;17.42;15.65;;;19.40;99.90;;;19.39;76.30;101953.66;5053345;28;20045;-69
2022/07/05 00:11:25;;;;;;;17.77;15.88;;;19.40;99.90;;;19.16;76.05;101901.41;5053261;28;20045;-69
2022/07/05 00:13:54;;;;;;;16.83;15.23;;;19.40;99.90;;;19.40;76.68;101951.81;5053260;28;20060;-69
2022/07/05 00:16:22;;;;;;;18.58;16.67;;;19.40;99.90;;;19.95;76.15;102030.16;5053232;28;20048;-69
2022/07/05 00:18:51;;;;;;;16.83;15.23;;;19.40;99.90;;;19.49;76.39;101955.19;5053313;28;20124;-69
2022/07/05 00:21:20;;;;;;;17.88;16.10;;;19.40;99.90;;;19.67;76.89;101981.59;5053206;28;20041;-69
2022/07/05 00:23:49;;;;;;;22.15;16.98;;;19.40;99.90;;;19.62;76.84;101971.88;5053670;28;20095;-69
2022/07/05 00:26:18;;;;;;;17.27;15.05;;;19.40;99.90;;;20.04;77.14;102029.91;5053133;28;20045;-69
2022/07/05 00:28:47;;;;;;;20.08;18.00;;;19.50;99.90;;;20.05;77.15;102020.94;5053274;28;20102;-69
2022/07/05 00:31:15;;;;;;;18.40;16.35;;;19.60;99.90;;;20.07;77.00;102024.47;5053222;28;20083;-69
2022/07/05 00:33:47;;;;;;;18.02;16.02;;;19.60;99.90;;;19.85;76.52;102001.75;5053237;28;20049;-69
2022/07/05 00:36:15;;;;;;;18.88;16.83;;;19.60;99.90;;;19.89;76.11;102008.81;5052988;28;20048;-69
2022/07/05 00:38:44;;;;;;;19.23;17.25;;;19.60;99.90;;;19.91;75.71;102006.09;5051901;28;20060;-69
2022/07/05 00:41:16;;;;;;;19.52;17.58;;;19.60;99.90;;;19.29;75.29;101898.38;5068391;28;20448;-69
2022/07/05 00:43:54;;;;;;;20.60;18.50;;;19.60;99.90;;;20.08;75.11;102045.03;5053161;28;20045;-69
2022/07/05 00:46:23;;;;;;;19.85;17.88;;;19.60;99.90;;;19.96;75.27;102015.78;5051536;28;20056;-69
2022/07/05 00:48:52;;;;;;;20.90;18.75;;;19.60;99.90;;;19.74;75.07;101964.41;5068461;28;20393;-69
2022/07/05 00:51:23;;;;;;;21.15;19.05;;;19.60;99.90;;;20.10;74.87;102024.41;5051671;28;20052;-69
2022/07/05 00:53:52;;;;;;;19.75;15.88;;;19.60;99.90;;;19.53;76.21;101923.78;5052825;28;20391;-69
2022/07/05 00:56:25;;;;;;;16.45;14.68;;;19.60;99.90;;;19.94;75.87;102033.75;5053018;28;20097;-68
2022/07/05 00:58:54;;;;;;;23.08;19.02;;;19.50;99.90;;;19.76;76.71;102077.16;5051781;28;20060;-70
2022/07/05 01:01:23;;;;;;;23.55;21.05;;;19.20;99.90;;;19.79;76.54;102036.81;5051834;28;20064;-69
2022/07/05 01:03:51;;;;;;;20.67;18.48;;;19.20;99.90;;;19.76;77.09;102015.41;5051673;28;20052;-69
2022/07/05 01:06:20;;;;;;;20.35;18.25;;;19.30;99.90;;;19.74;77.52;102009.19;5068078;28;20514;-69
2022/07/05 01:08:49;;;;;;;19.67;17.27;;;19.30;99.90;;;19.73;77.65;102002.03;5051942;28;20068;-69
2022/07/05 01:11:18;;;;;;;21.98;17.83;;;19.30;99.90;;;19.85;77.54;102006.22;5067926;28;20047;-69
2022/07/05 01:13:48;;;;;;;21.48;17.38;;;19.40;99.90;;;19.89;77.85;102019.56;5085111;28;20122;-69
2022/07/05 01:16:18;;;;;;;21.30;19.13;;;19.40;99.90;;;19.56;77.79;102001.56;5051588;28;20395;-69
2022/07/05 01:18:47;;;;;;;21.58;19.10;;;19.30;99.90;;;19.26;77.60;101948.56;5052769;28;20457;-69
2022/07/05 01:21:19;;;;;;;18.17;16.50;;;19.30;99.90;;;19.44;77.62;102004.50;5051707;28;20053;-69
2022/07/05 01:23:51;;;;;;;15.80;14.30;;;19.20;99.90;;;19.39;78.12;101988.53;5052822;28;20061;-69
2022/07/05 01:26:21;;;;;;;17.83;16.10;;;19.10;99.90;;;19.43;78.18;102019.75;5052807;28;20079;-69
2022/07/05 01:28:49;;;;;;;20.77;18.67;;;19.10;99.90;;;19.46;77.91;102008.06;5052787;28;20067;-69
2022/07/05 01:31:18;;;;;;;22.65;19.48;;;19.10;99.90;;;19.52;77.88;102026.69;5052542;28;20410;-69
2022/07/05 01:33:49;;;;;;;22.65;20.27;;;19.00;99.90;;;19.31;78.95;102003.00;5052386;28;20032;-69
2022/07/05 01:36:19;;;;;;;16.95;15.20;;;19.00;99.90;;;19.15;79.22;101975.63;5052938;28;20099;-69
2022/07/05 01:38:49;;;;;;;18.45;15.82;;;19.00;99.90;;;19.26;79.42;102010.28;5051462;28;20052;-69
2022/07/05 01:41:18;;;;;;;15.77;14.18;;;18.90;99.90;;;19.39;79.14;102034.16;5052321;28;20490;-69
2022/07/05 01:43:47;;;;;;;17.15;15.55;;;18.90;99.90;;;19.11;78.99;101997.16;5052514;28;20114;-69
2022/07/05 01:46:18;;;;;;;14.43;13.10;;;18.80;99.90;;;19.23;78.96;102027.31;5052204;28;20085;-69
2022/07/05 01:48:48;;;;;;;16.95;15.18;;;18.80;99.90;;;19.04;78.78;101998.22;5052270;28;20041;-69
2022/07/05 01:51:22;;;;;;;19.02;17.02;;;18.80;99.90;;;19.03;78.65;101981.25;5051194;28;20635;-69
2022/07/05 01:53:54;;;;;;;17.73;15.63;;;18.80;99.90;;;19.32;78.59;102020.84;5054266;28;20053;-69
2022/07/05 01:56:22;;;;;;;18.25;13.88;;;18.90;99.90;;;19.36;78.57;102027.94;5055921;28;20422;-69
2022/07/05 01:58:54;;;;;;;13.52;12.23;;;18.90;99.90;;;19.35;78.51;102026.19;5054824;28;20049;-69
2022/07/05 02:01:37;;;;;;;10.38;9.43;;;18.80;99.90;;;19.30;78.59;102025.41;5054670;28;20495;-69
2022/07/05 02:04:08;;;;;;;7.22;6.63;;;18.80;99.90;;;19.23;78.84;102026.44;5054712;28;20603;-69
2022/07/05 02:06:38;;;;;;;7.22;6.55;;;18.80;99.90;;;18.91;78.78;102005.66;5055971;28;20033;-69
2022/07/05 02:09:10;;;;;;;6.40;5.80;;;18.60;99.90;;;18.78;79.32;101994.28;5054641;28;20072;-69
2022/07/05 02:11:40;;;;;;;6.03;5.55;;;18.50;99.90;;;18.90;79.47;102023.53;5071220;28;20049;-69
2022/07/05 02:14:08;;;;;;;7.40;5.20;;;18.40;99.90;;;18.76;79.74;102025.59;5071061;28;20490;-69
2022/07/05 02:16:40;;;;;;;6.47;5.93;;;18.30;99.90;;;18.79;80.32;102035.41;5071128;28;20415;-69
2022/07/05 02:19:09;;;;;;;6.82;6.32;;;18.30;99.90;;;18.52;80.34;101993.03;5055652;28;20068;-69
2022/07/05 02:21:41;;;;;;;5.93;5.38;;;18.30;99.90;;;18.59;80.03;101989.31;5054355;28;20072;-69
2022/07/05 02:24:14;;;;;;;4.47;4.18;;;18.30;99.90;;;18.64;79.27;102015.09;5054247;28;20506;-69
2022/07/05 02:26:54;;;;;;;5.13;4.63;;;18.30;99.90;;;18.60;78.56;102018.75;5053962;28;20045;-69
2022/07/05 02:29:23;;;;;;;5.38;4.97;;;18.20;99.90;;;18.59;79.09;102017.00;5054393;28;20049;-69
2022/07/05 02:31:56;;;;;;;5.55;5.10;;;18.10;99.90;;;18.61;80.60;102019.66;5054050;28;20051;-69
2022/07/05 02:34:27;;;;;;;5.95;5.55;;;18.10;99.90;;;18.65;80.13;102029.41;5071094;28;20045;-69
2022/07/05 02:36:56;;;;;;;7.70;7.10;;;18.10;99.90;;;18.61;79.63;102023.22;5054172;28;20415;-68
2022/07/05 02:39:26;;;;;;;7.22;6.57;;;18.10;99.90;;;18.54;79.77;102028.72;5055204;28;20078;-69
2022/07/05 02:41:57;;;;;;;7.90;6.15;;;18.00;99.90;;;18.25;79.75;101972.06;5053970;28;20506;-69
2022/07/05 02:44:26;;;;;;;5.90;5.40;;;18.00;99.90;;;18.55;80.15;102025.13;5054871;28;20518;-69
2022/07/05 02:46:55;;;;;;;8.10;6.75;;;18.00;99.90;;;18.46;80.43;102061.03;5053735;28;20060;-69
2022/07/05 02:49:25;;;;;;;6.60;6.03;;;17.90;99.90;;;18.44;80.75;102017.31;5053849;28;20063;-69
2022/07/05 02:51:54;;;;;;;5.82;5.32;;;17.90;99.90;;;18.52;80.81;102019.84;5053814;28;20052;-69
2022/07/05 02:54:27;;;;;;;5.72;5.32;;;18.00;99.90;;;18.08;81.35;101979.53;5053523;28;20056;-69
2022/07/05 02:56:56;;;;;;;;;;;17.90;99.90;;;18.26;81.34;101997.94;5054001;28;20053;-69
2022/07/05 02:59:27;;;;;;;5.70;5.30;;;17.90;99.90;;;16.90;81.39;101751.41;5070356;28;19921;-69
2022/07/05 03:01:56;;;;;;;6.38;5.78;;;17.90;99.90;;;18.01;81.64;101936.78;5070499;28;20060;-69
2022/07/05 03:04:24;;;;;;;6.97;5.90;;;17.90;99.90;;;18.51;81.49;102018.94;5054909;28;20064;-69
2022/07/05 03:06:56;;;;;;;7.90;7.30;;;18.00;99.90;;;18.57;81.20;102023.31;5053543;28;20121;-68
2022/07/05 03:09:30;;;;;;;8.07;7.28;;;18.00;99.90;;;18.63;80.74;102029.44;5053480;28;20045;-69
2022/07/05 03:12:04;;;;;;;5.75;5.25;;;18.10;99.90;;;18.60;80.79;102025.94;5053142;28;20550;-69
2022/07/05 03:14:34;;;;;;;9.95;9.05;;;18.10;99.90;;;18.62;80.75;102030.34;5053410;28;20506;-69
2022/07/05 03:17:04;;;;;;;7.32;6.72;;;18.10;99.90;;;18.50;80.76;102022.56;5053273;28;20107;-69
2022/07/05 03:19:32;;;;;;;5.75;5.25;;;18.10;99.90;;;18.48;80.01;102039.56;5070031;28;20040;-69
2022/07/05 03:22:05;;;;;;;6.40;5.90;;;18.00;99.90;;;17.94;79.16;102014.59;5053149;28;20044;-69
2022/07/05 03:24:39;;;;;;;17.10;15.48;;;17.70;99.90;;;18.02;79.04;102034.94;5053191;28;20091;-68
2022/07/05 03:27:08;;;;;;;;;;;17.60;99.90;;;17.81;79.71;102003.16;5053610;28;20406;-69
2022/07/05 03:29:38;;;;;;;15.95;14.30;;;17.60;99.90;;;18.02;80.07;102032.25;5053074;28;19920;-69
2022/07/05 03:32:07;;;;;;;10.30;9.50;;;17.60;99.90;;;18.05;80.50;102039.38;5069541;28;20053;-69
2022/07/05 03:34:39;;;;;;;10.98;10.07;;;17.60;99.90;;;18.08;81.11;102033.97;5052727;28;20051;-69
2022/07/05 03:37:10;;;;;;;11.82;10.82;;;17.60;99.90;;;18.22;82.05;102042.66;5069582;28;20552;-69
2022/07/05 03:39:40;;;;;;;10.23;9.27;;;17.70;99.90;;;18.21;82.02;102048.94;5054180;28;20049;-68
2022/07/05 03:42:10;;;;;;;11.13;10.15;;;17.70;99.90;;;18.22;82.30;102048.00;5069559;28;20049;-69
2022/07/05 03:44:39;;;;;;;11.77;10.70;;;17.70;99.90;;;18.35;82.29;102044.19;5069442;28;20080;-69
2022/07/05 03:47:08;;;;;;;13.55;12.32;;;17.80;99.90;;;18.07;82.39;101986.69;5054113;28;20344;-69
2022/07/05 03:49:37;;;;;;;13.10;11.90;;;17.90;99.90;;;18.29;82.17;102025.56;5052382;28;20045;-69
2022/07/05 03:52:06;;;;;;;16.92;15.18;;;17.90;99.90;;;18.33;81.62;102040.66;5052542;28;20045;-69
2022/07/05 03:54:34;;;;;;;17.80;15.93;;;17.90;99.90;;;17.89;81.18;101962.88;5052592;28;20072;-69
2022/07/05 03:57:08;;;;;;;15.73;14.18;;;17.90;99.90;;;17.83;81.41;101950.50;5052580;28;20483;-69
2022/07/05 03:59:38;;;;;;;18.13;16.27;;;17.90;99.90;;;18.21;81.64;102035.53;5053808;28;20041;-69
2022/07/05 04:02:07;;;;;;;18.75;16.85;;;17.90;99.90;;;18.35;81.55;102038.84;5052380;28;20051;-69
2022/07/05 04:04:35;;;;;;;19.65;17.85;;;17.90;99.90;;;18.44;81.55;102049.47;5052086;28;20099;-69
2022/07/05 04:07:04;;;;;;;17.52;15.82;;;17.90;99.90;;;18.39;81.41;102027.16;5052334;28;20441;-69
2022/07/05 04:09:34;;;;;;;19.20;17.30;;;18.00;99.90;;;18.57;81.22;102056.34;5051958;28;20049;-77
2022/07/05 04:12:09;;;;;;;18.15;15.93;;;18.10;99.90;;;18.24;80.97;102005.13;5052277;28;20687;-70
2022/07/05 04:14:39;;;;;;;17.58;15.77;;;18.10;99.90;;;18.57;80.76;102067.06;5052054;28;20072;-69
2022/07/05 04:17:08;;;;;;;11.93;9.15;;;18.10;99.90;;;18.08;80.68;101987.56;5052012;28;20140;-68
2022/07/05 04:19:37;;;;;;;7.27;6.57;;;18.10;99.90;;;18.01;80.65;102013.56;5051205;28;20577;-69
2022/07/05 04:22:06;;;;;;;5.45;4.97;;;18.00;99.90;;;18.56;80.82;102116.22;5085400;28;20803;-70
2022/07/05 04:25:16;;;;;;;6.07;5.57;;;18.10;99.90;;;18.19;81.28;102015.94;5052069;28;20524;-69
2022/07/05 04:27:26;;;;;;;7.25;6.55;;;18.00;99.90;;;18.30;81.16;102021.97;5053232;28;20041;-68
2022/07/05 04:29:55;;;;;;;7.63;7.03;;;18.10;99.90;;;18.44;81.35;102037.84;5051866;28;20055;-69
2022/07/05 04:32:24;;;;;;;11.30;10.20;;;18.10;99.90;;;18.80;81.25;102058.59;5051993;28;20052;-68
2022/07/05 04:34:53;;;;;;;12.50;11.40;;;18.30;99.90;;;18.92;80.93;102064.63;5068736;28;20128;-68
2022/07/05 04:37:21;;;;;;;9.93;9.02;;;18.40;99.90;;;18.93;80.86;102058.31;5053246;28;20053;-68
2022/07/05 04:39:52;;;;;;;10.45;9.20;;;18.40;99.90;;;18.96;80.71;102069.91;5068392;28;20045;-68
2022/07/05 04:42:21;;;;;;;12.13;10.93;;;18.50;99.90;;;18.95;80.67;102057.44;5053495;28;20041;-68
2022/07/05 04:44:51;;;;;;;12.88;11.57;;;18.50;99.90;;;18.89;81.05;102039.66;5053338;28;20116;-68
2022/07/05 04:47:20;;;;;;;13.73;12.30;;;18.50;99.90;;;19.12;80.89;102066.91;5051451;28;20067;-69
2022/07/05 04:49:48;;;;;;;13.30;11.13;;;18.70;99.90;;;18.61;80.51;101963.38;5051515;28;20045;-69
2022/07/05 04:52:17;;;;;;;15.05;11.68;;;18.70;99.90;;;19.34;80.31;102073.63;5068814;28;20049;-68
2022/07/05 04:54:46;;;;;;;14.73;11.90;;;18.90;99.90;;;19.20;79.89;102026.50;5052663;28;20079;-68
2022/07/05 04:57:15;;;;;;;14.70;12.73;;;18.90;99.90;;;19.06;80.08;102010.69;5052947;28;20067;-68
2022/07/05 04:59:43;;;;;;;14.43;12.93;;;18.90;99.90;;;19.38;79.73;102061.00;5053254;28;20055;-68
2022/07/05 05:02:14;;;;;;;16.05;14.05;;;18.90;99.90;;;19.46;79.67;102075.16;5052973;28;20549;-68
2022/07/05 05:04:42;;;;;;;15.98;13.90;;;19.00;99.90;;;19.63;79.52;102072.97;5052692;28;20063;-68
2022/07/05 05:07:11;;;;;;;15.50;13.73;;;19.10;99.90;;;19.80;79.80;102086.94;5052592;28;20091;-68
2022/07/05 05:09:40;;;;;;;17.53;15.20;;;19.30;99.90;;;19.37;79.97;102005.59;5052665;28;20048;-68
2022/07/05 05:12:10;;;;;;;18.02;13.93;;;19.30;99.90;;;20.04;79.79;102088.13;5052519;28;20337;-69
2022/07/05 05:14:39;;;;;;;15.60;13.95;;;19.50;99.90;;;18.84;79.05;101870.81;5051510;28;20098;-69
2022/07/05 05:17:07;;;;;;;14.65;13.25;;;19.60;99.90;;;19.73;79.02;102015.47;5052588;28;20069;-69
2022/07/05 05:19:37;;;;;;;14.90;13.32;;;19.60;99.90;;;20.16;79.02;102083.34;5068229;28;20052;-69
2022/07/05 05:22:08;;;;;;;15.40;13.88;;;19.70;99.90;;;20.20;79.24;102094.94;5052548;28;20048;-68
2022/07/05 05:24:37;;;;;;;16.17;14.48;;;19.70;99.90;;;20.21;78.88;102091.34;5052454;28;20056;-69
2022/07/05 05:27:06;;;;;;;15.80;14.20;;;19.80;99.90;;;20.19;78.80;102061.81;5053363;28;20071;-69
2022/07/05 05:29:34;;;;;;;16.02;14.32;;;19.80;99.90;;;20.39;78.64;102096.25;5056584;28;20049;-69
2022/07/05 05:32:05;;;;;;;16.92;14.35;;;19.90;99.90;;;20.44;79.08;102105.97;5056475;28;20037;-69
2022/07/05 05:34:33;;;;;;;18.10;14.63;;;20.00;99.90;;;20.52;79.03;102105.75;5056149;28;20090;-69
2022/07/05 05:37:04;;;;;;;16.33;14.23;;;20.00;99.90;;;19.04;78.65;101829.25;5055995;28;20060;-69
2022/07/05 05:39:32;;;;;;;16.13;14.50;;;20.10;99.90;;;20.68;78.79;102099.97;5056154;28;20048;-69
2022/07/05 05:42:01;;;;;;;20.05;13.88;;;20.20;99.90;;;20.54;79.50;102077.03;5055976;28;20041;-69
2022/07/05 05:44:29;;;;;;;17.67;13.60;;;20.20;99.90;;;20.58;77.95;102095.75;5055060;28;20059;-69
2022/07/05 05:47:01;;;;;;;21.10;13.95;;;20.10;99.90;;;20.46;76.76;102104.13;5056306;28;20056;-68
2022/07/05 05:49:29;;;;;;;18.55;12.57;;;20.10;99.90;;;20.46;76.65;102106.81;5056554;28;20060;-68
2022/07/05 05:51:58;;;;;;;21.25;11.70;;;20.00;99.90;;;20.01;75.78;102024.63;5056026;28;20120;-68
2022/07/05 05:54:28;;;;;;;24.13;12.63;;;20.00;99.90;;;20.49;75.55;102101.38;5055899;28;20048;-68
2022/07/05 05:56:56;;;;;;;24.98;12.07;;;20.00;99.90;;;19.78;74.98;102043.09;5054870;28;20041;-69
2022/07/05 05:59:25;;;;;;;24.75;12.00;;;19.80;99.90;;;20.12;74.74;102076.28;5055781;28;20425;-69
2022/07/05 06:01:53;;;;;;;22.52;12.02;;;19.80;99.90;;;20.13;74.17;102091.47;5055817;28;20111;-68
2022/07/05 06:04:22;;;;;;;21.08;11.68;;;19.80;99.90;;;20.53;73.72;102116.50;5054598;28;20080;-68
2022/07/05 06:06:50;;;;;;;18.20;10.52;;;20.00;99.90;;;20.50;74.24;102127.31;5055535;28;20049;-68
2022/07/05 06:09:19;;;;;;;14.32;10.00;;;20.00;99.90;;;20.66;73.55;102119.75;5055532;28;20063;-68
2022/07/05 06:11:49;;;;;;;16.25;9.75;;;20.20;99.90;;;20.61;72.79;102119.00;5055471;28;20049;-68
2022/07/05 06:14:17;;;;;;;14.73;9.37;;;20.20;99.90;;;20.56;71.92;102116.41;5055527;28;20094;-68
2022/07/05 06:16:46;;;;;;;12.77;8.50;;;20.20;99.90;;;19.63;71.89;101954.84;5055312;28;20773;-68
2022/07/05 06:19:14;;;;;;;19.40;9.48;;;20.20;99.90;;;20.66;71.93;102103.59;5071017;28;20041;-69
2022/07/05 06:21:43;;;;;;;11.57;6.80;;;20.30;99.90;;;20.63;71.69;102090.25;5055577;28;20049;-68
2022/07/05 06:24:11;;;;;;;16.23;6.32;;;20.40;99.90;;;20.78;70.00;102130.19;5055236;28;20056;-68
2022/07/05 06:26:40;;;;;;;12.40;5.05;;;20.30;99.90;;;20.76;67.82;102132.03;5070403;28;20064;-68
2022/07/05 06:29:10;;;;;;;13.55;5.38;;;20.30;99.90;;;20.74;68.71;102130.31;5055192;28;20041;-68
2022/07/05 06:31:39;;;;;;;10.48;4.65;;;20.30;99.90;;;20.57;67.90;102145.09;5055403;28;20407;-68
2022/07/05 06:34:12;;;;;;;11.55;4.22;;;20.20;99.90;;;20.50;67.31;102115.66;5055030;28;20569;-69
2022/07/05 06:36:41;;;;;;;4.60;3.75;;;20.30;99.90;;;20.73;66.41;102152.75;5055061;28;20045;-68
2022/07/05 06:39:09;;;;;;;8.70;4.15;;;20.30;99.90;;;20.89;65.77;102140.66;5054705;28;20041;-69
2022/07/05 06:41:38;;;;;;;9.75;3.97;;;20.40;99.90;;;20.96;65.06;102144.97;5053910;28;20076;-68
2022/07/05 06:44:06;;;;;;;10.65;4.15;;;20.50;99.90;;;20.65;63.99;102093.78;5054939;28;20044;-69
2022/07/05 06:46:56;;;;;;;15.07;4.78;;;20.50;99.90;;;20.90;63.43;102139.75;5055235;28;20071;-68
2022/07/05 06:49:25;;;;;;;10.30;4.30;;;20.50;99.90;;;20.82;63.68;102144.44;5054851;28;20132;-70
2022/07/05 06:51:53;;;;;;;6.43;3.42;;;20.50;99.90;;;20.68;63.07;102128.66;5055021;28;20048;-69
2022/07/05 06:54:22;;;;;;;8.55;4.13;;;20.40;99.90;;;20.83;61.85;102135.47;5054936;28;20045;-69
2022/07/05 06:57:10;;;;;;;5.30;3.72;;;20.60;99.90;;;21.11;61.10;102148.16;5054585;28;20418;-69
2022/07/05 07:00:00;;;;;;;7.22;3.58;;;20.70;99.90;;;21.15;61.07;102155.22;5054503;28;20396;-69
2022/07/05 07:02:50;;;;;;;5.22;3.60;;;20.80;99.90;;;21.16;59.99;102159.66;5054658;28;20124;-69
2022/07/05 07:05:18;;;;;;;5.38;3.45;;;20.80;99.90;;;21.16;60.34;102158.78;5054902;28;20052;-69
2022/07/05 07:10:38;;;;;;;5.75;3.40;;;20.80;99.90;;;20.98;60.03;102164.66;5031875;28;20053;-68
2022/07/05 07:13:07;;;;;;;5.93;3.10;;;20.60;99.90;;;21.08;61.13;102183.22;5054410;28;20456;-70
2022/07/05 07:15:37;;;;;;;4.53;3.13;;;20.70;99.90;;;21.23;59.66;102145.13;5054288;28;20438;-72
2022/07/05 07:18:17;;;;;;;6.30;3.50;;;20.90;99.90;;;21.44;59.50;102168.75;5054454;28;20447;-73
2022/07/05 07:20:45;;;;;;;5.97;3.03;;;21.00;99.90;;;21.38;58.45;102200.34;5054355;28;20375;-74
2022/07/05 07:23:16;;;;;;;9.75;4.00;;;21.00;99.90;;;21.02;58.06;102075.72;5054215;28;20051;-74
2022/07/05 07:25:48;;;;;;;6.38;3.20;;;21.20;99.90;;;21.75;57.09;102174.13;5053047;28;20051;-74
2022/07/05 07:28:16;;;;;;;7.45;3.10;;;21.40;99.90;;;21.56;56.59;102140.59;5053951;28;20048;-70
2022/07/05 07:30:48;;;;;;;4.65;3.28;;;21.50;99.90;;;21.78;56.58;102136.31;5054040;28;20475;-69
2022/07/05 07:33:18;;;;;;;4.07;3.17;;;21.60;99.90;;;20.15;55.85;101844.25;5069726;28;20048;-70
2022/07/05 07:36:07;;;;;;;4.90;2.78;;;21.70;99.90;;;21.57;56.70;102166.56;5054284;28;20046;-74
2022/07/05 07:38:42;;;;;;;7.63;3.50;;;21.40;99.90;;;21.44;57.14;102127.47;5086633;28;20140;-75
2022/07/05 07:41:10;;;;;;;5.57;3.38;;;21.30;99.90;;;21.97;55.68;102167.19;5054154;28;20144;-73
2022/07/05 07:43:39;;;;;;;7.07;2.83;;;21.60;99.90;;;22.17;56.48;102183.63;5053853;28;20041;-73
2022/07/05 07:46:08;;;;;;;3.72;2.92;;;21.80;99.90;;;22.23;55.80;102188.84;5052220;28;20053;-72
2022/07/05 07:48:37;;;;;;;7.25;3.28;;;21.90;99.90;;;22.10;56.72;102154.22;5054217;28;20075;-73
2022/07/05 07:51:06;;;;;;;5.13;3.38;;;21.90;99.90;;;21.35;56.20;102081.97;5052980;28;20111;-76
2022/07/05 07:53:35;;;;;;;6.45;3.40;;;21.70;99.90;;;22.00;56.84;102126.69;5054207;28;20144;-72
2022/07/05 07:56:04;;;;;;;6.00;3.63;;;21.90;99.90;;;22.50;54.67;102195.16;5053559;28;20041;-72
2022/07/05 07:58:32;;;;;;;4.90;3.38;;;22.10;99.90;;;22.65;54.89;102189.28;5053582;28;20029;-73
2022/07/05 08:01:01;;;;;;;4.10;2.70;;;22.20;99.90;;;22.36;54.88;102149.75;5053472;28;20048;-72
2022/07/05 08:03:33;;;;;;;6.28;2.70;;;22.30;99.90;;;21.96;53.80;102103.44;5053550;28;20569;-74
2022/07/05 08:06:03;;;;;;;5.75;3.33;;;22.50;99.90;;;22.99;54.15;102206.13;5053505;28;20120;-73
2022/07/05 08:08:31;;;;;;;7.57;3.17;;;22.60;99.90;;;21.91;54.47;102104.53;5053349;28;20033;-73
2022/07/05 08:11:00;;;;;;;7.10;3.45;;;22.50;99.90;;;22.55;54.05;102185.09;5053375;28;20057;-73
2022/07/05 08:13:28;;;;;;;6.20;3.00;;;22.40;99.90;;;22.85;54.81;102207.50;5053379;28;20064;-73
2022/07/05 08:15:58;;;;;;;8.40;3.00;;;22.50;99.90;;;22.89;54.77;102206.47;5053513;28;20040;-73
2022/07/05 08:21:31;;;;;;;6.45;3.17;;;22.40;99.90;;;22.80;54.55;102191.47;5053214;28;20052;-73
2022/07/05 08:24:02;;;;;;;9.70;3.33;;;22.50;99.90;;;22.49;54.92;102163.75;5053415;28;20099;-73
2022/07/05 08:26:31;;;;;;;6.78;3.38;;;22.30;99.90;;;22.86;54.40;102206.59;5051936;28;20148;-73
2022/07/05 08:29:01;;;;;;;5.43;3.15;;;22.50;99.90;;;22.67;55.28;102208.09;5053098;28;20041;-73
2022/07/05 08:31:40;;;;;;;8.80;3.50;;;22.50;99.90;;;22.68;55.58;102208.09;5053356;28;20455;-73
2022/07/05 08:34:10;;;;;;;8.20;3.22;;;22.40;99.90;;;22.78;54.61;102204.16;5053122;28;20731;-72
2022/07/05 08:36:41;;;;;;;7.00;3.47;;;22.40;99.90;;;22.70;55.19;102208.03;5053171;28;20077;-72
2022/07/05 08:39:13;;;;;;;5.20;3.22;;;22.30;99.90;;;22.41;54.28;102128.91;5053242;28;20071;-73
2022/07/05 08:41:46;;;;;;;5.03;2.95;;;22.50;99.90;;;22.66;54.37;102206.38;5051841;28;20044;-73
2022/07/05 08:44:18;;;;;;;6.97;3.42;;;22.50;99.90;;;22.71;54.60;102188.19;5052812;28;20049;-72
2022/07/05 08:46:52;;;;;;;5.18;3.10;;;22.60;99.90;;;22.20;54.75;102161.09;5051258;28;20049;-74
2022/07/05 08:49:24;;;;;;;7.88;3.45;;;22.30;99.90;;;22.61;54.31;102179.53;5052642;28;20106;-73
2022/07/05 08:51:55;;;;;;;6.50;3.35;;;22.40;99.90;;;22.89;54.99;102204.66;5053120;28;20112;-73
2022/07/05 08:54:25;;;;;;;11.60;3.60;;;22.50;99.90;;;22.79;55.62;102205.91;5052761;28;20128;-73
2022/07/05 08:56:54;;;;;;;6.30;3.63;;;22.50;99.90;;;22.45;56.58;102200.69;5051730;28;20048;-73
2022/07/05 08:59:42;;;;;;;5.72;3.35;;;22.20;99.90;;;22.67;56.63;102217.09;5052704;28;20041;-73
2022/07/05 09:02:19;;;;;;;6.30;3.33;;;22.40;99.90;;;21.07;56.57;101895.31;5055089;28;20041;-73
2022/07/05 09:04:51;;;;;;;4.28;3.15;;;22.50;99.90;;;22.48;56.59;102148.47;5056846;28;20036;-73
2022/07/05 09:07:23;;;;;;;10.45;3.67;;;22.50;99.90;;;22.51;56.07;102158.28;5057016;28;20045;-73
2022/07/05 09:09:52;;;;;;;9.43;3.97;;;22.50;99.90;;;22.67;56.91;102192.81;5056806;28;20045;-72
2022/07/05 09:12:24;;;;;;;9.00;3.35;;;22.60;99.90;;;22.15;56.11;102146.88;5056584;28;20072;-72
2022/07/05 09:14:56;;;;;;;7.07;3.53;;;22.30;99.90;;;21.58;56.26;102058.78;5056661;28;20067;-72
2022/07/05 09:17:27;;;;;;;9.25;3.83;;;22.10;99.90;;;22.67;54.81;102227.00;5057112;28;20069;-73
2022/07/05 09:20:12;;;;;;;5.55;3.45;;;22.30;99.90;;;22.51;54.84;102185.25;5056989;28;20442;-72
2022/07/05 09:22:52;;;;;;;5.32;3.15;;;22.30;99.90;;;22.69;53.90;102211.63;5056470;28;20401;-73
2022/07/05 09:25:23;;;;;;;;;;;22.40;99.90;;;22.94;54.05;102228.78;5056775;28;20048;-73
2022/07/05 09:27:57;;;;;;;6.53;3.38;;;22.60;99.90;;;23.14;54.36;102245.19;5057271;28;19978;-73
2022/07/05 09:30:30;;;;;;;9.50;3.38;;;22.80;99.90;;;22.90;54.35;102219.06;5056340;28;20041;-72
2022/07/05 09:33:11;;;;;;;5.90;3.10;;;22.80;99.90;;;22.70;53.79;102208.91;5056610;28;20131;-73
2022/07/05 09:35:41;;;;;;;5.65;3.78;;;22.70;99.90;;;23.02;53.89;102221.31;5071528;28;20045;-73
2022/07/05 09:38:21;;;;;;;6.32;3.58;;;22.80;99.90;;;22.87;52.41;102246.13;5056226;28;20045;-73
2022/07/05 09:40:51;;;;;;;9.60;3.70;;;22.70;99.90;;;22.77;53.26;102244.66;5056169;28;20045;-73
2022/07/05 09:43:22;;;;;;;6.93;3.50;;;22.50;99.90;;;22.82;54.06;102199.53;5056182;28;20379;-73
2022/07/05 09:45:59;;;;;;;6.53;3.38;;;22.70;99.90;;;22.75;53.00;102193.44;5056109;28;20060;-73
2022/07/05 09:48:30;;;;;;;9.40;3.30;;;22.80;99.90;;;22.19;53.11;102048.78;5056554;28;20045;-73
2022/07/05 09:51:11;;;;;;;8.35;3.72;;;23.00;99.90;;;22.80;54.35;102145.59;5056022;28;20091;-73
2022/07/05 09:54:02;;;;;;;12.27;3.72;;;23.20;99.90;;;23.33;53.39;102230.16;5055870;28;20098;-73
2022/07/05 09:56:48;;;;;;;6.28;3.53;;;23.20;99.90;;;23.61;53.99;102263.34;5054484;28;20049;-73
2022/07/05 09:59:19;;;;;;;5.60;3.78;;;23.40;99.90;;;23.77;53.57;102239.38;5088323;28;20045;-73
2022/07/05 10:01:50;;;;;;;5.45;3.38;;;23.50;99.90;;;24.04;51.97;102266.25;5055433;28;20040;-73
2022/07/05 10:04:19;;;;;;;6.22;3.05;;;23.70;99.90;;;23.75;50.95;102250.19;5055776;28;20494;-73
2022/07/05 10:06:48;;;;;;;6.43;3.40;;;23.50;99.90;;;23.44;51.59;102222.53;5055680;28;20443;-73
2022/07/05 10:09:22;;;;;;;7.32;3.42;;;23.30;99.90;;;22.90;51.73;102216.34;5055504;28;20068;-73
2022/07/05 10:11:54;;;;;;;4.55;3.28;;;22.90;99.90;;;23.00;49.58;102240.28;5071171;28;20049;-73
2022/07/05 10:14:23;;;;;;;9.60;3.50;;;22.70;99.90;;;23.15;50.71;102261.34;5053891;28;20095;-73
2022/07/05 10:17:01;;;;;;;7.05;3.35;;;22.80;99.90;;;23.02;51.07;102257.28;5055637;28;20086;-72
2022/07/05 10:19:36;;;;;;;7.55;3.40;;;22.70;99.90;;;22.80;49.72;102228.38;5054329;28;20045;-72
2022/07/05 10:22:06;;;;;;;6.15;3.42;;;22.70;99.90;;;22.90;50.87;102257.69;5054331;28;20052;-72
2022/07/05 10:24:47;;;;;;;;;;;22.50;99.90;;;22.65;50.34;102223.50;5055696;28;20045;-73
2022/07/05 10:27:19;;;;;;;8.00;3.10;;;22.60;99.90;;;22.39;51.94;102209.00;5055511;28;20019;-72
2022/07/05 10:29:50;;;;;;;5.22;3.17;;;22.40;99.90;;;22.49;51.59;102255.44;5055236;28;20123;-72